sensor_id;sensor_type;location;lat;lon;timestamp;pressure;altitude;pressure_sealevel;temperature;humidity
77149;BME280;66122;47.130;16.844;2023-05-29T00:04:11;99711.81;;;12.60;95.12
77149;BME280;66122;47.130;16.844;2023-05-29T00:14:15;99677.91;;;12.49;93.35
77149;BME280;66122;47.130;16.844;2023-05-29T00:24:18;99685.03;;;12.35;96.34
77149;BME280;66122;47.130;16.844;2023-05-29T00:34:22;99709.50;;;12.68;95.64
77149;BME280;66122;47.130;16.844;2023-05-29T00:44:26;99702.75;;;12.77;97.13
77149;BME280;66122;47.130;16.844;2023-05-29T00:54:29;99676.03;;;12.37;99.59
77149;BME280;66122;47.130;16.844;2023-05-29T01:04:33;99696.47;;;11.49;100.00
77149;BME280;66122;47.130;16.844;2023-05-29T01:15:04;99709.88;;;12.05;97.08
77149;BME280;66122;47.130;16.844;2023-05-29T01:35:51;99715.94;;;11.93;95.68
77149;BME280;66122;47.130;16.844;2023-05-29T01:45:54;99694.00;;;11.76;99.49
77149;BME280;66122;47.130;16.844;2023-05-29T01:55:57;99681.88;;;11.86;98.61
77149;BME280;66122;47.130;16.844;2023-05-29T02:06:00;99667.38;;;11.61;96.96
77149;BME280;66122;47.130;16.844;2023-05-29T02:16:03;99665.75;;;11.45;99.66
77149;BME280;66122;47.130;16.844;2023-05-29T02:26:06;99660.47;;;11.59;98.65
77149;BME280;66122;47.130;16.844;2023-05-29T02:36:09;99647.22;;;10.83;100.00
77149;BME280;66122;47.130;16.844;2023-05-29T02:46:13;99643.28;;;10.28;100.00
77149;BME280;66122;47.130;16.844;2023-05-29T02:56:16;99671.84;;;10.85;99.88
77149;BME280;66122;47.130;16.844;2023-05-29T03:06:19;99656.59;;;11.05;97.28
77149;BME280;66122;47.130;16.844;2023-05-29T03:16:23;99666.38;;;10.57;100.00
77149;BME280;66122;47.130;16.844;2023-05-29T03:26:27;99683.63;;;10.95;100.00
77149;BME280;66122;47.130;16.844;2023-05-29T03:36:29;99693.16;;;11.45;100.00
77149;BME280;66122;47.130;16.844;2023-05-29T03:46:34;99700.63;;;11.53;98.18
77149;BME280;66122;47.130;16.844;2023-05-29T03:56:37;99696.94;;;11.10;99.06
77149;BME280;66122;47.130;16.844;2023-05-29T04:06:39;99720.88;;;11.99;96.78
77149;BME280;66122;47.130;16.844;2023-05-29T04:16:42;99686.84;;;12.06;95.56
77149;BME280;66122;47.130;16.844;2023-05-29T04:26:45;99695.28;;;12.27;94.70
77149;BME280;66122;47.130;16.844;2023-05-29T04:36:48;99728.81;;;13.13;92.89
77149;BME280;66122;47.130;16.844;2023-05-29T04:46:50;99733.84;;;13.84;86.45
77149;BME280;66122;47.130;16.844;2023-05-29T04:56:56;99733.84;;;14.98;81.64
77149;BME280;66122;47.130;16.844;2023-05-29T05:07:08;99726.47;;;14.39;81.35
77149;BME280;66122;47.130;16.844;2023-05-29T05:17:12;99717.75;;;15.82;76.84
77149;BME280;66122;47.130;16.844;2023-05-29T05:27:15;99732.47;;;16.45;73.17
77149;BME280;66122;47.130;16.844;2023-05-29T05:37:18;99757.84;;;15.82;76.12
77149;BME280;66122;47.130;16.844;2023-05-29T05:47:22;99735.25;;;17.21;72.14
77149;BME280;66122;47.130;16.844;2023-05-29T05:57:25;99756.03;;;18.24;70.39
77149;BME280;66122;47.130;16.844;2023-05-29T06:07:29;99764.59;;;17.98;70.11
77149;BME280;66122;47.130;16.844;2023-05-29T06:17:32;99768.28;;;19.29;64.83
77149;BME280;66122;47.130;16.844;2023-05-29T06:27:39;99756.78;;;19.77;62.71
77149;BME280;66122;47.130;16.844;2023-05-29T06:37:45;99753.09;;;19.78;59.55
77149;BME280;66122;47.130;16.844;2023-05-29T06:47:48;99781.66;;;20.17;58.49
77149;BME280;66122;47.130;16.844;2023-05-29T06:57:51;99760.50;;;20.98;54.22
77149;BME280;66122;47.130;16.844;2023-05-29T07:07:54;99786.25;;;21.20;53.25
77149;BME280;66122;47.130;16.844;2023-05-29T07:17:57;99781.97;;;21.27;55.05
77149;BME280;66122;47.130;16.844;2023-05-29T07:28:02;99764.50;;;21.49;53.54
77149;BME280;66122;47.130;16.844;2023-05-29T07:38:23;99762.47;;;21.60;54.34
77149;BME280;66122;47.130;16.844;2023-05-29T07:48:25;99787.06;;;21.75;52.86
77149;BME280;66122;47.130;16.844;2023-05-29T07:58:28;99784.53;;;22.09;53.82
77149;BME280;66122;47.130;16.844;2023-05-29T08:08:32;99783.13;;;22.05;53.34
77149;BME280;66122;47.130;16.844;2023-05-29T08:18:35;99783.81;;;21.26;55.44
77149;BME280;66122;47.130;16.844;2023-05-29T08:28:39;99782.72;;;22.35;51.47
77149;BME280;66122;47.130;16.844;2023-05-29T08:38:44;99793.59;;;21.90;49.18
77149;BME280;66122;47.130;16.844;2023-05-29T08:48:48;99763.53;;;22.90;49.88
77149;BME280;66122;47.130;16.844;2023-05-29T08:58:55;99790.97;;;24.36;47.00
77149;BME280;66122;47.130;16.844;2023-05-29T09:09:00;99765.59;;;24.37;47.06
77149;BME280;66122;47.130;16.844;2023-05-29T09:19:06;99777.28;;;25.17;42.85
77149;BME280;66122;47.130;16.844;2023-05-29T09:29:15;99776.88;;;25.67;42.24
77149;BME280;66122;47.130;16.844;2023-05-29T09:39:18;99747.00;;;25.36;43.80
77149;BME280;66122;47.130;16.844;2023-05-29T09:49:22;99777.44;;;25.62;41.66
77149;BME280;66122;47.130;16.844;2023-05-29T09:59:25;99745.31;;;25.66;42.88
77149;BME280;66122;47.130;16.844;2023-05-29T10:09:28;99757.84;;;26.43;40.71
77149;BME280;66122;47.130;16.844;2023-05-29T10:19:32;99778.97;;;26.33;40.46
77149;BME280;66122;47.130;16.844;2023-05-29T10:29:43;99748.53;;;26.53;39.68
77149;BME280;66122;47.130;16.844;2023-05-29T10:39:51;99759.19;;;27.36;39.13
77149;BME280;66122;47.130;16.844;2023-05-29T10:49:59;99735.38;;;26.79;41.24
77149;BME280;66122;47.130;16.844;2023-05-29T11:00:04;99724.59;;;27.66;40.18
77149;BME280;66122;47.130;16.844;2023-05-29T11:10:55;99736.66;;;26.68;40.42
77149;BME280;66122;47.130;16.844;2023-05-29T11:21:01;99721.97;;;26.92;41.13
77149;BME280;66122;47.130;16.844;2023-05-29T11:31:08;99729.50;;;26.53;40.61
77149;BME280;66122;47.130;16.844;2023-05-29T11:41:11;99697.09;;;26.95;40.19
77149;BME280;66122;47.130;16.844;2023-05-29T11:51:14;99726.34;;;27.94;37.56
77149;BME280;66122;47.130;16.844;2023-05-29T12:01:17;99718.88;;;28.52;37.20
77149;BME280;66122;47.130;16.844;2023-05-29T12:11:24;99688.06;;;28.93;36.23
77149;BME280;66122;47.130;16.844;2023-05-29T12:21:27;99691.59;;;28.52;36.44
77149;BME280;66122;47.130;16.844;2023-05-29T12:31:30;99684.88;;;27.78;37.14
77149;BME280;66122;47.130;16.844;2023-05-29T12:41:34;99688.97;;;28.38;34.61
77149;BME280;66122;47.130;16.844;2023-05-29T12:51:44;99684.69;;;28.01;37.15
77149;BME280;66122;47.130;16.844;2023-05-29T13:01:48;99659.28;;;28.21;34.85
77149;BME280;66122;47.130;16.844;2023-05-29T13:11:51;99665.44;;;28.30;35.64
77149;BME280;66122;47.130;16.844;2023-05-29T13:21:55;99668.94;;;28.03;35.25
77149;BME280;66122;47.130;16.844;2023-05-29T13:31:58;99652.94;;;26.64;39.08
77149;BME280;66122;47.130;16.844;2023-05-29T13:42:00;99638.47;;;27.65;37.57
77149;BME280;66122;47.130;16.844;2023-05-29T13:52:03;99634.81;;;26.71;37.08
77149;BME280;66122;47.130;16.844;2023-05-29T14:02:06;99656.66;;;27.07;36.85
77149;BME280;66122;47.130;16.844;2023-05-29T14:12:10;99649.59;;;26.24;38.88
77149;BME280;66122;47.130;16.844;2023-05-29T14:22:13;99642.78;;;25.00;42.98
77149;BME280;66122;47.130;16.844;2023-05-29T14:32:16;99625.38;;;24.31;45.84
77149;BME280;66122;47.130;16.844;2023-05-29T14:42:18;99641.94;;;23.14;49.67
77149;BME280;66122;47.130;16.844;2023-05-29T14:52:21;99633.88;;;23.39;48.60
77149;BME280;66122;47.130;16.844;2023-05-29T15:02:24;99636.59;;;24.20;47.66
77149;BME280;66122;47.130;16.844;2023-05-29T15:12:27;99638.09;;;25.39;44.36
77149;BME280;66122;47.130;16.844;2023-05-29T15:22:30;99616.94;;;26.32;42.56
77149;BME280;66122;47.130;16.844;2023-05-29T15:32:33;99606.81;;;25.28;41.82
77149;BME280;66122;47.130;16.844;2023-05-29T15:42:36;99591.97;;;26.14;41.26
77149;BME280;66122;47.130;16.844;2023-05-29T15:52:42;99603.97;;;25.67;39.72
77149;BME280;66122;47.130;16.844;2023-05-29T16:02:56;99600.31;;;25.60;40.00
77149;BME280;66122;47.130;16.844;2023-05-29T16:12:59;99601.19;;;25.53;40.27
77149;BME280;66122;47.130;16.844;2023-05-29T16:23:02;99620.88;;;25.01;40.72
77149;BME280;66122;47.130;16.844;2023-05-29T16:33:06;99630.00;;;25.31;41.87
77149;BME280;66122;47.130;16.844;2023-05-29T16:43:08;99607.44;;;25.08;42.70
77149;BME280;66122;47.130;16.844;2023-05-29T16:53:11;99622.63;;;24.55;44.98
77149;BME280;66122;47.130;16.844;2023-05-29T17:03:13;99598.84;;;24.02;43.66
77149;BME280;66122;47.130;16.844;2023-05-29T17:13:16;99596.00;;;23.47;44.44
77149;BME280;66122;47.130;16.844;2023-05-29T17:23:19;99632.47;;;23.02;46.51
77149;BME280;66122;47.130;16.844;2023-05-29T17:33:21;99633.13;;;22.54;47.09
77149;BME280;66122;47.130;16.844;2023-05-29T17:43:25;99642.56;;;21.37;50.33
77149;BME280;66122;47.130;16.844;2023-05-29T17:53:28;99636.09;;;21.30;49.34
77149;BME280;66122;47.130;16.844;2023-05-29T18:03:30;99640.72;;;20.92;52.69
77149;BME280;66122;47.130;16.844;2023-05-29T18:13:33;99671.91;;;20.11;56.05
77149;BME280;66122;47.130;16.844;2023-05-29T18:23:36;99672.63;;;20.13;56.09
77149;BME280;66122;47.130;16.844;2023-05-29T18:33:39;99681.31;;;19.88;57.06
77149;BME280;66122;47.130;16.844;2023-05-29T18:43:42;99696.41;;;19.12;60.71
77149;BME280;66122;47.130;16.844;2023-05-29T18:53:45;99711.41;;;19.24;59.51
77149;BME280;66122;47.130;16.844;2023-05-29T19:03:47;99687.44;;;19.02;58.76
77149;BME280;66122;47.130;16.844;2023-05-29T19:13:50;99695.47;;;18.22;63.65
77149;BME280;66122;47.130;16.844;2023-05-29T19:23:54;99700.50;;;18.36;61.00
77149;BME280;66122;47.130;16.844;2023-05-29T19:33:58;99714.63;;;18.17;63.39
77149;BME280;66122;47.130;16.844;2023-05-29T19:44:01;99730.53;;;17.56;65.58
77149;BME280;66122;47.130;16.844;2023-05-29T19:54:06;99758.50;;;17.95;63.69
77149;BME280;66122;47.130;16.844;2023-05-29T20:04:09;99752.91;;;17.99;63.54
77149;BME280;66122;47.130;16.844;2023-05-29T20:14:12;99746.75;;;17.44;66.71
77149;BME280;66122;47.130;16.844;2023-05-29T20:24:14;99754.47;;;17.26;66.46
77149;BME280;66122;47.130;16.844;2023-05-29T20:34:17;99765.72;;;17.52;65.70
77149;BME280;66122;47.130;16.844;2023-05-29T20:44:20;99772.56;;;17.45;65.56
77149;BME280;66122;47.130;16.844;2023-05-29T20:54:22;99774.59;;;17.09;66.85
77149;BME280;66122;47.130;16.844;2023-05-29T21:04:25;99740.16;;;17.05;65.65
77149;BME280;66122;47.130;16.844;2023-05-29T21:14:28;99750.00;;;17.04;65.41
77149;BME280;66122;47.130;16.844;2023-05-29T21:24:32;99763.81;;;16.42;69.42
77149;BME280;66122;47.130;16.844;2023-05-29T21:34:34;99752.31;;;15.96;72.66
77149;BME280;66122;47.130;16.844;2023-05-29T21:44:37;99728.94;;;15.87;71.40
77149;BME280;66122;47.130;16.844;2023-05-29T21:54:39;99763.63;;;15.28;73.87
77149;BME280;66122;47.130;16.844;2023-05-29T22:04:43;99745.59;;;15.55;72.16
77149;BME280;66122;47.130;16.844;2023-05-29T22:14:45;99752.47;;;15.10;72.85
77149;BME280;66122;47.130;16.844;2023-05-29T22:24:48;99730.50;;;14.45;76.58
77149;BME280;66122;47.130;16.844;2023-05-29T22:34:51;99733.78;;;14.74;74.99
77149;BME280;66122;47.130;16.844;2023-05-29T22:44:54;99740.28;;;14.57;77.23
77149;BME280;66122;47.130;16.844;2023-05-29T22:54:58;99699.75;;;14.01;79.04
77149;BME280;66122;47.130;16.844;2023-05-29T23:05:01;99736.31;;;13.99;80.96
77149;BME280;66122;47.130;16.844;2023-05-29T23:15:04;99724.94;;;14.23;79.33
77149;BME280;66122;47.130;16.844;2023-05-29T23:25:08;99713.84;;;14.03;80.11
77149;BME280;66122;47.130;16.844;2023-05-29T23:35:12;99709.28;;;13.53;82.33
77149;BME280;66122;47.130;16.844;2023-05-29T23:45:15;99755.28;;;13.95;83.61
77149;BME280;66122;47.130;16.844;2023-05-29T23:55:18;99717.22;;;13.80;82.57
